Puigcerda, Spain
Current Conditions -  °F | °C
As of 12:00 PM on Saturday 25 Oct 2014 (Local Time) from LFMP Reporting Station
Scattered Clouds Scattered Clouds  
Wind Chill: 77°   Ceiling: Unl
Heat Index: 78°   Visibility: 6mi
Dew Point: 46°   Wind: 17mph
Humidity: 34%   Direction: 310°NW
Pressure: 30.06"   Gusts: NA
Location:  42.43°N, 1.93°E
Report Text: LFMP 251000Z 31015KT 9999 FEW040 SCT250 25/08 Q1018 NOSIG
Loading
Personal Weather Stations






























Interactive Weather Map
Tropical Storm Tracking
New forecast layout! Learn more

10-Day Weather Forecast

Advertisements
Track Severe Weather on mobile